createdAt,value
2018-01-27T00:01:56.814Z,15.90
2018-01-27T00:04:24.251Z,16.13
2018-01-27T00:06:51.700Z,15.07
2018-01-27T00:09:19.168Z,14.53
2018-01-27T00:11:46.598Z,14.30
2018-01-27T00:14:14.031Z,15.60
2018-01-27T00:16:41.470Z,15.60
2018-01-27T00:19:08.907Z,15.73
2018-01-27T00:21:36.342Z,18.50
2018-01-27T00:24:04.543Z,15.20
2018-01-27T00:26:32.759Z,16.10
2018-01-27T00:29:00.199Z,16.93
2018-01-27T00:31:27.635Z,15.83
2018-01-27T00:33:55.071Z,17.37
2018-01-27T00:36:23.271Z,17.30
2018-01-27T00:38:51.466Z,16.30
2018-01-27T00:41:18.912Z,18.23
2018-01-27T00:43:46.340Z,18.73
2018-01-27T00:46:14.547Z,16.80
2018-01-27T00:48:42.752Z,17.33
2018-01-27T00:51:10.187Z,17.03
2018-01-27T00:53:37.634Z,16.93
2018-01-27T00:56:05.067Z,17.60
2018-01-27T00:58:32.506Z,15.60
2018-01-27T01:00:59.934Z,16.33
2018-01-27T01:03:28.137Z,16.20
2018-01-27T01:05:56.340Z,17.20
2018-01-27T01:08:24.542Z,16.90
2018-01-27T01:10:51.979Z,14.73
2018-01-27T01:13:19.415Z,13.30
2018-01-27T01:15:46.842Z,16.53
2018-01-27T01:18:14.290Z,15.43
2018-01-27T01:20:41.723Z,15.47
2018-01-27T01:23:09.167Z,15.60
2018-01-27T01:25:36.597Z,17.03
2018-01-27T01:28:04.799Z,15.07
2018-01-27T01:30:32.990Z,14.80
2018-01-27T01:33:01.203Z,16.17
2018-01-27T01:35:29.400Z,14.90
2018-01-27T01:37:57.616Z,15.70
2018-01-27T01:40:25.051Z,16.23
2018-01-27T01:42:58.222Z,14.70
2018-01-27T01:45:25.658Z,15.83
2018-01-27T01:47:53.862Z,14.10
2018-01-27T01:50:22.058Z,15.90
2018-01-27T01:52:50.271Z,15.07
2018-01-27T01:55:17.698Z,15.17
2018-01-27T01:57:45.902Z,14.43
2018-01-27T02:00:13.344Z,15.00
2018-01-27T02:02:40.777Z,13.80
2018-01-27T02:05:08.213Z,14.63
2018-01-27T02:07:35.659Z,14.53
2018-01-27T02:10:03.858Z,14.80
2018-01-27T02:12:32.067Z,15.60
2018-01-27T02:14:59.494Z,15.37
2018-01-27T02:17:27.703Z,14.83
2018-01-27T02:19:55.139Z,14.87
2018-01-27T02:22:22.578Z,15.27
2018-01-27T02:24:50.003Z,14.80
2018-01-27T02:27:17.438Z,14.20
2018-01-27T02:29:44.870Z,13.83
2018-01-27T02:32:12.316Z,15.23
2018-01-27T02:34:40.512Z,14.67
2018-01-27T02:37:08.721Z,15.77
2018-01-27T02:39:36.944Z,16.60
2018-01-27T02:42:04.355Z,15.93
2018-01-27T02:44:31.799Z,15.17
2018-01-27T02:46:59.235Z,15.70
2018-01-27T02:49:26.678Z,14.27
2018-01-27T02:51:54.106Z,14.33
2018-01-27T02:54:22.320Z,15.50
2018-01-27T02:56:50.523Z,13.80
2018-01-27T02:59:18.735Z,16.13
2018-01-27T03:01:46.176Z,16.00
2018-01-27T03:04:13.620Z,17.60
2018-01-27T03:06:41.051Z,23.63
2018-01-27T03:09:09.267Z,19.23
2018-01-27T03:11:36.699Z,20.43
2018-01-27T03:14:04.144Z,21.60
2018-01-27T03:16:31.579Z,19.27
2018-01-27T03:18:59.023Z,21.40
2018-01-27T03:21:26.460Z,20.40
2018-01-27T03:23:54.674Z,20.93
2018-01-27T03:26:22.108Z,20.40
2018-01-27T03:28:49.542Z,19.57
2018-01-27T03:31:16.980Z,18.70
2018-01-27T03:33:45.204Z,19.67
2018-01-27T03:36:12.644Z,19.20
2018-01-27T03:38:40.084Z,19.27
2018-01-27T03:41:07.523Z,20.00
2018-01-27T03:43:34.959Z,20.30
2018-01-27T03:46:02.403Z,18.47
2018-01-27T03:48:30.603Z,20.60
2018-01-27T03:50:58.821Z,18.17
2018-01-27T03:53:26.260Z,17.77
2018-01-27T03:55:53.727Z,18.47
2018-01-27T03:58:21.164Z,19.00
2018-01-27T04:00:48.602Z,22.00
2018-01-27T04:03:16.040Z,17.50
2018-01-27T04:05:43.488Z,16.67
2018-01-27T04:08:11.695Z,17.50
2018-01-27T04:10:39.135Z,19.07
2018-01-27T04:13:06.580Z,18.97
2018-01-27T04:15:34.014Z,19.50
2018-01-27T04:18:02.224Z,20.03
2018-01-27T04:20:30.427Z,16.43
2018-01-27T04:22:58.626Z,21.07
2018-01-27T04:25:26.835Z,21.03
2018-01-27T04:27:54.266Z,20.90
2018-01-27T04:30:21.715Z,19.70
2018-01-27T04:32:49.151Z,18.80
2018-01-27T04:35:16.634Z,21.93
2018-01-27T04:37:44.035Z,21.00
2018-01-27T04:40:11.466Z,17.90
2018-01-27T04:42:38.938Z,18.23
2018-01-27T04:45:06.351Z,20.70
2018-01-27T04:47:33.791Z,16.40
2018-01-27T04:50:01.228Z,19.77
2018-01-27T04:52:29.435Z,20.13
2018-01-27T04:54:56.876Z,19.47
2018-01-27T04:57:24.310Z,20.80
2018-01-27T04:59:51.746Z,21.70
2018-01-27T05:02:19.195Z,19.70
2018-01-27T05:04:46.631Z,22.90
2018-01-27T05:07:14.840Z,21.23
2018-01-27T05:09:42.275Z,20.50
2018-01-27T05:12:09.715Z,23.10
2018-01-27T05:14:37.160Z,20.63
2018-01-27T05:17:05.371Z,21.90
2018-01-27T05:19:33.572Z,22.70
2018-01-27T05:22:01.010Z,21.07
2018-01-27T05:24:28.451Z,24.67
2018-01-27T05:26:55.891Z,19.67
2018-01-27T05:29:24.109Z,20.63
2018-01-27T05:31:52.316Z,27.40
2018-01-27T05:34:19.747Z,22.70
2018-01-27T05:36:47.191Z,21.90
2018-01-27T05:39:14.632Z,24.60
2018-01-27T05:41:42.839Z,24.43
2018-01-27T05:44:11.051Z,21.87
2018-01-27T05:46:39.251Z,21.03
2018-01-27T05:49:06.702Z,24.40
2018-01-27T05:51:34.144Z,22.53
2018-01-27T05:54:01.587Z,23.93
2018-01-27T05:56:29.891Z,23.73
2018-01-27T05:58:58.103Z,24.17
2018-01-27T06:01:25.544Z,25.07
2018-01-27T06:03:53.759Z,25.50
2018-01-27T06:06:21.950Z,25.93
2018-01-27T06:08:50.167Z,25.70
2018-01-27T06:11:17.599Z,25.10
2018-01-27T06:13:45.046Z,26.50
2018-01-27T06:16:12.479Z,25.87
2018-01-27T06:18:39.924Z,26.80
2018-01-27T06:21:07.361Z,26.00
2018-01-27T06:23:35.580Z,25.17
2018-01-27T06:26:03.012Z,27.37
2018-01-27T06:28:30.460Z,27.33
2018-01-27T06:30:57.899Z,29.47
2018-01-27T06:33:26.112Z,27.03
2018-01-27T06:35:53.590Z,26.40
2018-01-27T06:38:21.039Z,26.40
2018-01-27T06:40:48.480Z,23.60
2018-01-27T06:43:15.939Z,27.27
2018-01-27T06:45:43.375Z,26.13
2018-01-27T06:48:10.812Z,29.33
2018-01-27T06:50:38.251Z,29.30
2018-01-27T06:53:06.459Z,29.00
2018-01-27T06:55:34.670Z,28.60
2018-01-27T06:58:02.111Z,28.03
2018-01-27T07:00:29.608Z,28.70
2018-01-27T07:02:57.812Z,29.50
2018-01-27T07:05:26.015Z,28.10
2018-01-27T07:07:53.447Z,30.53
2018-01-27T07:10:20.896Z,26.23
2018-01-27T07:12:48.338Z,29.87
2018-01-27T07:15:15.779Z,30.87
2018-01-27T07:17:43.218Z,28.60
2018-01-27T07:20:11.428Z,31.90
2018-01-27T07:22:38.864Z,30.63
2018-01-27T07:25:06.304Z,27.20
2018-01-27T07:27:33.744Z,30.87
2018-01-27T07:30:01.959Z,32.83
2018-01-27T07:32:29.395Z,28.80
2018-01-27T07:34:56.843Z,33.80
2018-01-27T07:37:24.278Z,31.33
2018-01-27T07:39:51.724Z,28.07
2018-01-27T07:42:19.163Z,33.20
2018-01-27T07:44:46.603Z,29.20
2018-01-27T07:47:14.045Z,29.20
2018-01-27T07:49:41.495Z,33.80
2018-01-27T07:52:09.702Z,34.40
2018-01-27T07:54:37.915Z,29.77
2018-01-27T07:57:05.361Z,31.80
2018-01-27T07:59:32.804Z,28.30
2018-01-27T08:02:01.099Z,34.47
2018-01-27T08:04:28.548Z,34.57
2018-01-27T08:06:55.989Z,32.20
2018-01-27T08:09:23.438Z,32.27
2018-01-27T08:11:50.879Z,30.40
2018-01-27T08:14:19.091Z,30.47
2018-01-27T08:16:46.532Z,26.57
2018-01-27T08:19:13.958Z,29.93
2018-01-27T08:21:41.412Z,29.40
2018-01-27T08:24:09.619Z,31.33
2018-01-27T08:26:37.836Z,30.67
2018-01-27T08:29:05.271Z,29.53
2018-01-27T08:31:32.728Z,26.90
2018-01-27T08:34:00.168Z,32.43
2018-01-27T08:36:27.615Z,32.27
2018-01-27T08:38:55.076Z,29.53
2018-01-27T08:41:22.520Z,30.60
2018-01-27T08:43:49.959Z,31.20
2018-01-27T08:46:17.413Z,28.30
2018-01-27T08:48:44.851Z,29.57
2018-01-27T08:51:12.296Z,26.60
2018-01-27T08:53:39.735Z,26.90
2018-01-27T08:56:07.184Z,29.20
2018-01-27T08:58:34.632Z,27.97
2018-01-27T09:01:02.071Z,29.43
2018-01-27T09:03:29.515Z,30.43
2018-01-27T09:05:57.740Z,27.30
2018-01-27T09:08:25.175Z,31.53
2018-01-27T09:10:52.623Z,28.50
2018-01-27T09:13:20.831Z,28.40
2018-01-27T09:15:49.048Z,25.97
2018-01-27T09:18:16.479Z,28.70
2018-01-27T09:20:43.932Z,27.80
2018-01-27T09:23:12.140Z,30.17
2018-01-27T09:25:39.592Z,38.88
2018-01-27T09:28:07.031Z,30.40
2018-01-27T09:30:34.487Z,44.72
2018-01-27T09:33:01.928Z,40.45
2018-01-27T09:35:29.371Z,37.70
2018-01-27T09:37:56.813Z,27.63
2018-01-27T09:40:25.036Z,34.40
2018-01-27T09:42:52.472Z,40.30
2018-01-27T09:45:19.940Z,41.80
2018-01-27T09:47:47.392Z,45.30
2018-01-27T09:50:14.827Z,39.17
2018-01-27T09:52:43.036Z,39.83
2018-01-27T09:55:19.033Z,41.37
2018-01-27T09:57:47.196Z,43.35
2018-01-27T10:00:15.411Z,39.65
2018-01-27T10:02:42.852Z,41.88
2018-01-27T10:05:10.313Z,42.67
2018-01-27T10:07:37.759Z,39.40
2018-01-27T10:10:05.755Z,37.97
2018-01-27T10:12:33.200Z,35.75
2018-01-27T10:15:01.428Z,31.00
2018-01-27T10:17:28.876Z,30.80
2018-01-27T10:19:57.080Z,28.40
2018-01-27T10:22:25.298Z,29.70
2018-01-27T10:24:52.735Z,27.30
2018-01-27T10:27:20.183Z,28.53
2018-01-27T10:29:47.627Z,27.70
2018-01-27T10:32:15.839Z,31.57
2018-01-27T10:34:43.273Z,23.30
2018-01-27T10:37:10.719Z,25.47
2018-01-27T10:39:38.160Z,26.17
2018-01-27T10:42:05.601Z,22.57
2018-01-27T10:44:33.037Z,27.40
2018-01-27T10:47:00.484Z,26.83
2018-01-27T10:49:28.683Z,26.50
2018-01-27T10:51:56.895Z,28.17
2018-01-27T10:54:24.340Z,27.17
2018-01-27T10:56:52.555Z,28.93
2018-01-27T10:59:20.769Z,29.13
2018-01-27T11:01:48.216Z,26.50
2018-01-27T11:04:15.662Z,28.30
2018-01-27T11:06:43.107Z,32.10
2018-01-27T11:09:10.549Z,25.87
2018-01-27T11:11:37.995Z,28.50
2018-01-27T11:14:06.203Z,28.30
2018-01-27T11:16:38.284Z,30.47
2018-01-27T11:19:05.714Z,29.63
2018-01-27T11:21:33.175Z,27.87
2018-01-27T11:24:01.370Z,28.60
2018-01-27T11:26:28.816Z,22.27
2018-01-27T11:28:56.259Z,28.37
2018-01-27T11:31:23.699Z,26.43
2018-01-27T11:33:51.897Z,23.83
2018-01-27T11:36:20.111Z,29.23
2018-01-27T11:38:47.551Z,25.27
2018-01-27T11:41:14.987Z,25.57
2018-01-27T11:43:42.427Z,25.50
2018-01-27T11:46:09.873Z,26.90
2018-01-27T11:48:37.310Z,28.07
2018-01-27T11:51:04.756Z,25.90
2018-01-27T11:53:32.196Z,24.33
2018-01-27T11:55:59.636Z,21.93
2018-01-27T11:58:27.080Z,23.80
2018-01-27T12:00:54.522Z,26.40
2018-01-27T12:03:22.719Z,27.90
2018-01-27T12:05:50.932Z,27.47
2018-01-27T12:08:19.136Z,23.97
2018-01-27T12:10:46.599Z,21.07
2018-01-27T12:13:14.028Z,24.90
2018-01-27T12:15:41.464Z,21.57
2018-01-27T12:18:09.680Z,23.30
2018-01-27T12:20:37.106Z,22.07
2018-01-27T12:23:04.551Z,18.47
2018-01-27T12:25:31.991Z,24.17
2018-01-27T12:27:59.432Z,23.43
2018-01-27T12:30:26.863Z,24.80
2018-01-27T12:32:55.076Z,22.77
2018-01-27T12:35:22.543Z,23.43
2018-01-27T12:37:49.971Z,20.43
2018-01-27T12:40:17.408Z,22.90
2018-01-27T12:42:45.621Z,21.50
2018-01-27T12:45:13.056Z,21.47
2018-01-27T12:47:40.538Z,19.60
2018-01-27T12:50:08.006Z,18.87
2018-01-27T12:52:35.440Z,20.67
2018-01-27T12:55:02.928Z,20.47
2018-01-27T12:57:31.128Z,21.70
2018-01-27T12:59:58.568Z,20.17
2018-01-27T13:02:26.008Z,18.43
2018-01-27T13:04:53.446Z,20.60
2018-01-27T13:07:21.652Z,21.10
2018-01-27T13:09:49.868Z,19.73
2018-01-27T13:12:17.296Z,21.73
2018-01-27T13:14:44.735Z,19.50
2018-01-27T13:17:12.175Z,19.30
2018-01-27T13:19:39.645Z,19.80
2018-01-27T13:22:07.092Z,20.10
2018-01-27T13:24:34.523Z,18.20
2018-01-27T13:27:02.726Z,21.30
2018-01-27T13:29:30.177Z,20.70
2018-01-27T13:31:57.653Z,25.10
2018-01-27T13:34:25.083Z,22.20
2018-01-27T13:36:53.292Z,21.27
2018-01-27T13:39:21.491Z,25.27
2018-01-27T13:41:49.696Z,22.93
2018-01-27T13:44:17.912Z,26.97
2018-01-27T13:46:45.397Z,28.13
2018-01-27T13:49:13.595Z,23.60
2018-01-27T13:51:41.837Z,24.10
2018-01-27T13:54:09.271Z,24.20
2018-01-27T13:56:37.476Z,24.87
2018-01-27T13:59:05.682Z,24.60
2018-01-27T14:01:33.935Z,25.10
2018-01-27T14:04:01.360Z,25.13
2018-01-27T14:06:29.567Z,26.77
2018-01-27T14:08:57.771Z,23.97
2018-01-27T14:11:25.206Z,25.97
2018-01-27T14:13:52.648Z,24.87
2018-01-27T14:16:20.088Z,26.00
2018-01-27T14:18:47.574Z,25.00
2018-01-27T14:21:14.998Z,26.80
2018-01-27T14:23:42.438Z,28.53
2018-01-27T14:26:09.916Z,27.53
2018-01-27T14:28:37.343Z,29.20
2018-01-27T14:31:04.783Z,27.27
2018-01-27T14:33:32.219Z,27.10
2018-01-27T14:35:59.667Z,28.87
2018-01-27T14:38:27.872Z,28.93
2018-01-27T14:40:55.311Z,35.53
2018-01-27T14:43:22.763Z,35.70
2018-01-27T14:45:50.220Z,38.55
2018-01-27T14:48:17.650Z,35.37
2018-01-27T14:50:45.111Z,37.28
2018-01-27T14:53:12.561Z,37.40
2018-01-27T14:55:40.770Z,33.60
2018-01-27T14:58:08.249Z,31.93
2018-01-27T15:00:36.442Z,29.43
2018-01-27T15:03:04.651Z,33.17
2018-01-27T15:05:32.141Z,36.57
2018-01-27T15:07:59.579Z,50.08
2018-01-27T15:10:27.033Z,53.63
2018-01-27T15:12:54.526Z,53.97
2018-01-27T15:15:21.967Z,55.92
2018-01-27T15:17:49.403Z,51.30
2018-01-27T15:20:17.665Z,53.95
2018-01-27T15:22:45.107Z,53.15
2018-01-27T15:25:12.557Z,50.90
2018-01-27T15:27:39.991Z,53.50
2018-01-27T15:30:07.434Z,55.90
2018-01-27T15:32:35.660Z,52.50
2018-01-27T15:35:03.155Z,56.90
2018-01-27T15:37:30.590Z,52.83
2018-01-27T15:39:58.853Z,48.95
2018-01-27T15:42:26.333Z,58.10
2018-01-27T15:44:53.763Z,57.88
2018-01-27T15:47:21.977Z,55.75
2018-01-27T15:49:49.453Z,46.37
2018-01-27T15:52:17.651Z,40.90
2018-01-27T15:54:45.138Z,44.43
2018-01-27T15:57:13.340Z,43.70
2018-01-27T15:59:40.779Z,45.63
2018-01-27T16:02:08.228Z,43.77
2018-01-27T16:04:35.672Z,46.30
2018-01-27T16:07:03.163Z,61.30
2018-01-27T16:09:31.368Z,58.75
2018-01-27T16:11:58.803Z,61.65
2018-01-27T16:14:26.250Z,62.80
2018-01-27T16:16:53.699Z,66.87
2018-01-27T16:19:21.146Z,72.70
2018-01-27T16:21:49.355Z,60.35
2018-01-27T16:24:17.571Z,60.85
2018-01-27T16:26:45.074Z,62.53
2018-01-27T16:29:12.554Z,58.20
2018-01-27T16:31:40.026Z,62.80
2018-01-27T16:34:08.232Z,57.85
2018-01-27T16:36:35.666Z,61.75
2018-01-27T16:39:03.152Z,57.42
2018-01-27T16:41:30.644Z,56.60
2018-01-27T16:43:58.086Z,55.35
2018-01-27T16:46:25.518Z,51.23
2018-01-27T16:48:53.736Z,61.97
2018-01-27T16:51:21.184Z,56.33
2018-01-27T16:53:48.669Z,66.82
2018-01-27T16:56:16.107Z,55.28
2018-01-27T16:58:43.549Z,65.35
2018-01-27T17:01:11.767Z,63.40
2018-01-27T17:03:39.231Z,66.60
2018-01-27T17:06:07.469Z,65.18
2018-01-27T17:08:34.945Z,66.90
2018-01-27T17:11:02.435Z,66.20
2018-01-27T17:13:29.901Z,63.90
2018-01-27T17:15:57.390Z,56.85
2018-01-27T17:18:24.866Z,63.80
2018-01-27T17:20:52.310Z,64.82
2018-01-27T17:23:19.760Z,59.83
2018-01-27T17:25:47.202Z,60.75
2018-01-27T17:28:14.693Z,53.67
2018-01-27T17:30:42.168Z,55.78
2018-01-27T17:33:09.643Z,54.33
2018-01-27T17:35:37.104Z,60.38
2018-01-27T17:38:05.373Z,60.33
2018-01-27T17:40:32.843Z,61.20
2018-01-27T17:43:00.329Z,57.15
2018-01-27T17:45:27.807Z,59.70
2018-01-27T17:47:55.244Z,56.23
2018-01-27T17:50:22.695Z,56.78
2018-01-27T17:52:50.912Z,62.38
2018-01-27T17:55:19.170Z,60.97
2018-01-27T17:57:46.649Z,52.40
2018-01-27T18:00:14.079Z,55.50
2018-01-27T18:02:41.577Z,51.05
2018-01-27T18:05:09.046Z,59.43
2018-01-27T18:07:37.239Z,58.10
2018-01-27T18:10:04.983Z,59.60
2018-01-27T18:12:32.462Z,56.00
2018-01-27T18:14:59.951Z,54.05
2018-01-27T18:17:27.395Z,56.25
2018-01-27T18:19:54.870Z,52.83
2018-01-27T18:22:22.356Z,56.05
2018-01-27T18:24:49.880Z,59.25
2018-01-27T18:27:17.309Z,47.33
2018-01-27T18:29:44.795Z,38.93
2018-01-27T18:32:12.224Z,35.90
2018-01-27T18:34:39.718Z,43.93
2018-01-27T18:37:07.200Z,41.50
2018-01-27T18:39:34.687Z,38.30
2018-01-27T18:42:02.163Z,43.70
2018-01-27T18:44:29.643Z,39.90
2018-01-27T18:46:57.136Z,44.17
2018-01-27T18:49:24.627Z,45.50
2018-01-27T18:51:52.098Z,39.90
2018-01-27T18:54:19.573Z,35.47
2018-01-27T18:56:47.050Z,42.20
2018-01-27T18:59:14.530Z,36.63
2018-01-27T19:01:42.012Z,42.90
2018-01-27T19:04:09.492Z,41.27
2018-01-27T19:06:36.962Z,44.80
2018-01-27T19:09:04.451Z,45.77
2018-01-27T19:11:31.888Z,47.07
2018-01-27T19:14:00.103Z,60.70
2018-01-27T19:16:28.369Z,67.50
2018-01-27T19:18:55.795Z,60.88
2018-01-27T19:21:24.013Z,65.07
2018-01-27T19:23:51.455Z,59.25
2018-01-27T19:26:18.907Z,53.30
2018-01-27T19:28:46.394Z,60.50
2018-01-27T19:31:13.883Z,55.70
2018-01-27T19:33:41.320Z,54.00
2018-01-27T19:36:08.768Z,61.47
2018-01-27T19:38:36.264Z,54.28
2018-01-27T19:41:03.835Z,60.90
2018-01-27T19:43:31.315Z,62.38
2018-01-27T19:45:58.790Z,59.20
2018-01-27T19:48:26.283Z,59.70
2018-01-27T19:50:53.766Z,60.45
2018-01-27T19:53:21.243Z,52.10
2018-01-27T19:55:48.739Z,59.90
2018-01-27T19:58:16.215Z,56.65
2018-01-27T20:00:43.651Z,51.00
2018-01-27T20:03:11.155Z,50.95
2018-01-27T20:05:38.586Z,51.17
2018-01-27T20:08:06.074Z,52.83
2018-01-27T20:10:33.562Z,54.33
2018-01-27T20:13:01.043Z,51.92
2018-01-27T20:15:28.477Z,61.23
2018-01-27T20:17:55.927Z,56.78
2018-01-27T20:20:23.427Z,54.22
2018-01-27T20:22:50.848Z,50.70
2018-01-27T20:25:18.303Z,47.47
2018-01-27T20:27:45.790Z,52.10
2018-01-27T20:30:13.271Z,49.23
2018-01-27T20:32:40.757Z,48.08
2018-01-27T20:35:08.238Z,43.92
2018-01-27T20:37:35.680Z,50.27
2018-01-27T20:40:03.186Z,45.47
2018-01-27T20:42:30.674Z,47.10
2018-01-27T20:44:58.163Z,47.17
2018-01-27T20:47:25.643Z,47.53
2018-01-27T20:49:53.131Z,50.25
2018-01-27T20:52:20.726Z,48.47
2018-01-27T20:54:48.214Z,46.33
2018-01-27T20:57:15.687Z,46.83
2018-01-27T20:59:43.187Z,42.53
2018-01-27T21:02:10.667Z,43.22
2018-01-27T21:04:38.138Z,43.70
2018-01-27T21:07:05.580Z,48.70
2018-01-27T21:09:33.833Z,45.63
2018-01-27T21:12:01.268Z,47.97
2018-01-27T21:14:28.754Z,46.45
2018-01-27T21:16:57.010Z,44.47
2018-01-27T21:19:24.498Z,47.72
2018-01-27T21:21:51.988Z,37.97
2018-01-27T21:24:19.474Z,50.15
2018-01-27T21:26:46.902Z,47.55
2018-01-27T21:29:14.391Z,47.20
2018-01-27T21:31:41.844Z,49.65
2018-01-27T21:34:09.282Z,45.97
2018-01-27T21:36:36.780Z,50.80
2018-01-27T21:39:04.257Z,49.83
2018-01-27T21:41:31.696Z,46.08
2018-01-27T21:43:59.191Z,46.67
2018-01-27T21:46:26.670Z,43.78
2018-01-27T21:48:54.143Z,46.22
2018-01-27T21:51:21.643Z,44.00
2018-01-27T21:53:49.059Z,45.72
2018-01-27T21:56:17.272Z,50.90
2018-01-27T21:58:45.475Z,48.27
2018-01-27T22:01:13.735Z,50.97
2018-01-27T22:03:41.204Z,45.35
2018-01-27T22:06:08.654Z,41.13
2018-01-27T22:08:36.091Z,37.20
2018-01-27T22:11:03.595Z,41.83
2018-01-27T22:13:31.852Z,39.15
2018-01-27T22:15:59.334Z,37.78
2018-01-27T22:18:26.797Z,39.70
2018-01-27T22:20:54.290Z,39.63
2018-01-27T22:23:22.484Z,35.97
2018-01-27T22:25:49.931Z,34.30
2018-01-27T22:28:17.383Z,36.92
2018-01-27T22:30:45.670Z,36.30
2018-01-27T22:33:14.612Z,36.65
2018-01-27T22:35:42.868Z,36.92
2018-01-27T22:38:10.312Z,38.92
2018-01-27T22:40:37.756Z,36.70
2018-01-27T22:43:05.204Z,36.22
2018-01-27T22:45:32.652Z,35.88
2018-01-27T22:48:00.146Z,35.72
2018-01-27T22:50:28.340Z,34.03
2018-01-27T22:52:55.847Z,33.20
2018-01-27T22:55:23.315Z,35.10
2018-01-27T22:57:51.559Z,34.63
2018-01-27T23:00:19.030Z,32.63
2018-01-27T23:02:46.518Z,34.35
2018-01-27T23:05:13.988Z,31.77
2018-01-27T23:07:42.179Z,35.10
2018-01-27T23:10:09.616Z,33.40
2018-01-27T23:12:37.119Z,34.47
2018-01-27T23:15:04.555Z,35.90
2018-01-27T23:17:32.043Z,36.40
2018-01-27T23:19:59.527Z,34.28
2018-01-27T23:22:26.960Z,35.75
2018-01-27T23:24:55.164Z,35.80
2018-01-27T23:27:22.663Z,35.00
2018-01-27T23:29:50.136Z,34.78
2018-01-27T23:32:18.331Z,33.17
2018-01-27T23:34:45.771Z,35.15
2018-01-27T23:37:13.253Z,33.20
2018-01-27T23:39:40.738Z,32.20
2018-01-27T23:42:08.221Z,33.88
2018-01-27T23:44:35.698Z,30.47
2018-01-27T23:47:03.180Z,31.08
2018-01-27T23:49:30.653Z,32.42
2018-01-27T23:51:58.081Z,32.67
2018-01-27T23:54:25.575Z,35.72
2018-01-27T23:56:53.805Z,35.60
2018-01-27T23:59:21.273Z,32.47
